createdAt,value
2023-04-18T00:01:28.992Z,11.90
2023-04-18T00:03:58.072Z,12.30
2023-04-18T00:06:25.948Z,11.90
2023-04-18T00:08:53.900Z,13.30
2023-04-18T00:11:21.810Z,12.60
2023-04-18T00:13:49.547Z,13.50
2023-04-18T00:16:17.422Z,13.40
2023-04-18T00:18:45.373Z,13.60
2023-04-18T00:21:13.851Z,14.00
2023-04-18T00:23:41.712Z,14.80
2023-04-18T00:26:09.407Z,14.20
2023-04-18T00:28:37.871Z,14.20
2023-04-18T00:31:05.734Z,15.30
2023-04-18T00:33:34.604Z,14.80
2023-04-18T00:36:03.371Z,14.40
2023-04-18T00:38:31.097Z,15.70
2023-04-18T00:40:58.865Z,14.30
2023-04-18T00:43:26.938Z,14.90
2023-04-18T00:45:57.027Z,15.20
2023-04-18T00:48:25.664Z,12.80
2023-04-18T00:50:55.122Z,14.00
2023-04-18T00:53:23.068Z,14.50
2023-04-18T00:55:51.358Z,13.50
2023-04-18T00:58:19.120Z,14.60
2023-04-18T01:00:47.201Z,14.60
2023-04-18T01:03:18.648Z,15.70
2023-04-18T01:05:47.162Z,14.20
2023-04-18T01:08:15.104Z,15.70
2023-04-18T01:10:42.920Z,14.90
2023-04-18T01:13:15.980Z,14.30
2023-04-18T01:15:45.750Z,15.50
2023-04-18T01:18:19.173Z,14.40
2023-04-18T01:20:49.080Z,14.10
2023-04-18T01:23:18.127Z,14.30
2023-04-18T01:25:49.210Z,15.10
2023-04-18T01:28:21.287Z,14.80
2023-04-18T01:30:50.344Z,13.60
2023-04-18T01:33:18.801Z,14.10
2023-04-18T01:35:48.217Z,14.80
2023-04-18T01:38:15.962Z,13.70
2023-04-18T01:40:44.183Z,14.00
2023-04-18T01:43:12.018Z,13.20
2023-04-18T01:45:39.832Z,12.50
2023-04-18T01:48:09.853Z,13.70
2023-04-18T01:50:37.646Z,14.00
2023-04-18T01:53:05.623Z,15.30
2023-04-18T01:55:33.557Z,13.80
2023-04-18T01:58:01.426Z,12.80
2023-04-18T02:00:29.312Z,15.30
2023-04-18T02:02:59.509Z,14.70
2023-04-18T02:05:27.616Z,13.80
2023-04-18T02:07:55.945Z,14.40
2023-04-18T02:10:24.487Z,12.70
2023-04-18T02:12:52.371Z,14.30
2023-04-18T02:15:21.116Z,13.50
2023-04-18T02:17:49.176Z,14.30
2023-04-18T02:20:17.292Z,15.00
2023-04-18T02:22:46.310Z,14.10
2023-04-18T02:25:14.120Z,14.00
2023-04-18T02:27:41.940Z,14.30
2023-04-18T02:30:10.078Z,15.10
2023-04-18T02:32:37.968Z,13.00
2023-04-18T02:35:06.562Z,13.60
2023-04-18T02:37:34.507Z,14.40
2023-04-18T02:40:05.018Z,13.60
2023-04-18T02:42:33.121Z,13.70
2023-04-18T02:45:02.286Z,13.40
2023-04-18T02:47:33.395Z,13.90
2023-04-18T02:50:06.641Z,14.70
2023-04-18T02:52:34.855Z,13.60
2023-04-18T02:55:03.033Z,14.00
2023-04-18T13:02:41.691Z,23.80
2023-04-18T13:05:11.979Z,21.40
2023-04-18T13:07:40.739Z,19.80
2023-04-18T13:10:09.594Z,19.90
2023-04-18T13:12:38.046Z,19.90
2023-04-18T13:15:07.260Z,18.90
2023-04-18T13:17:38.830Z,19.50
2023-04-18T13:20:10.645Z,18.70
2023-04-18T13:22:39.582Z,19.10
2023-04-18T13:25:10.400Z,19.00
2023-04-18T13:27:41.391Z,18.90
2023-04-18T13:30:10.989Z,19.50
2023-04-18T13:32:40.520Z,20.00
2023-04-18T13:35:10.893Z,19.20
2023-04-18T13:37:39.173Z,19.00
2023-04-18T13:40:07.970Z,19.80
2023-04-18T13:42:37.315Z,20.40
2023-04-18T13:45:05.861Z,20.00
2023-04-18T13:47:38.683Z,19.80
2023-04-18T13:50:07.369Z,20.10
2023-04-18T13:52:35.392Z,19.00
2023-04-18T13:55:03.981Z,19.80
2023-04-18T13:57:33.788Z,19.60
2023-04-18T14:00:01.645Z,17.60
2023-04-18T14:02:40.746Z,17.70
2023-04-18T14:05:09.362Z,18.10
2023-04-18T14:07:38.439Z,19.30
2023-04-18T14:10:06.862Z,19.00
2023-04-18T14:12:35.311Z,18.10
2023-04-18T14:15:03.502Z,19.70
2023-04-18T14:17:31.470Z,19.00
2023-04-18T14:19:59.399Z,19.50
2023-04-18T14:22:27.180Z,18.60
2023-04-18T14:24:56.182Z,18.10
2023-04-18T14:29:59.789Z,17.50
2023-04-18T14:32:27.678Z,16.70
2023-04-18T14:34:56.516Z,17.20
2023-04-18T14:37:24.559Z,15.70
2023-04-18T14:39:52.567Z,16.50
2023-04-18T14:42:20.878Z,17.10
2023-04-18T14:44:48.662Z,17.00
2023-04-18T14:47:16.480Z,17.80
2023-04-18T14:49:44.204Z,16.80
2023-04-18T14:52:12.222Z,16.70
2023-04-18T14:54:40.082Z,16.80
2023-04-18T14:57:08.520Z,15.80
2023-04-18T14:59:36.264Z,17.00
2023-04-18T15:02:04.120Z,15.80
2023-04-18T15:04:32.118Z,16.80
2023-04-18T15:06:59.899Z,16.80
2023-04-18T15:09:28.462Z,17.40
2023-04-18T15:11:58.260Z,17.00
2023-04-18T15:14:26.123Z,17.20
2023-04-18T15:16:54.044Z,16.80
2023-04-18T15:19:21.883Z,16.90
2023-04-18T15:21:49.677Z,16.00
2023-04-18T15:24:17.469Z,17.10
2023-04-18T15:26:45.685Z,15.60
2023-04-18T15:29:13.492Z,14.90
2023-04-18T15:31:41.546Z,16.90
2023-04-18T15:34:09.623Z,15.90
2023-04-18T15:36:37.559Z,17.90
2023-04-18T15:39:05.911Z,17.30
2023-04-18T15:41:35.548Z,16.70
2023-04-18T15:44:04.933Z,14.90
2023-04-18T15:46:34.798Z,16.00
2023-04-18T15:49:02.838Z,17.10
2023-04-18T15:51:31.022Z,16.60
2023-04-18T15:53:59.033Z,16.60
2023-04-18T15:56:27.243Z,17.70
2023-04-18T15:58:56.539Z,15.50
2023-04-18T16:01:24.309Z,17.80
2023-04-18T16:03:52.358Z,18.10
2023-04-18T16:06:23.587Z,16.60
2023-04-18T16:08:51.363Z,17.40
2023-04-18T16:11:19.844Z,18.90
2023-04-18T16:13:47.803Z,16.10
2023-04-18T16:16:15.858Z,18.90
2023-04-18T16:18:43.664Z,16.90
2023-04-18T16:21:17.418Z,17.80
2023-04-18T16:23:45.148Z,18.20
2023-04-18T16:26:12.897Z,17.20
2023-04-18T16:28:42.055Z,17.70
2023-04-18T16:31:09.930Z,17.30
2023-04-18T16:33:38.983Z,17.90
2023-04-18T16:36:07.334Z,16.50
2023-04-18T16:38:35.143Z,16.10
2023-04-18T16:41:03.756Z,17.00
2023-04-18T16:43:36.298Z,18.40
2023-04-18T16:46:04.421Z,17.90
2023-04-18T16:48:32.918Z,18.30
2023-04-18T16:51:01.208Z,18.20
2023-04-18T16:53:29.001Z,19.20
2023-04-18T16:55:56.800Z,18.60
2023-04-18T16:58:24.584Z,17.80
2023-04-18T17:00:52.836Z,17.90
2023-04-18T17:03:21.002Z,17.90
2023-04-18T17:05:49.158Z,17.70
2023-04-18T17:08:16.972Z,18.10
2023-04-18T17:10:44.783Z,17.00
2023-04-18T17:13:12.638Z,17.60
2023-04-18T17:15:43.024Z,17.50
2023-04-18T17:18:10.976Z,17.30
2023-04-18T17:20:38.870Z,17.30
2023-04-18T17:23:06.757Z,18.50
2023-04-18T17:25:35.060Z,17.60
2023-04-18T17:28:05.995Z,18.00
2023-04-18T17:30:33.843Z,16.70
2023-04-18T17:33:01.765Z,17.60
2023-04-18T17:35:29.827Z,16.90
2023-04-18T17:37:57.989Z,17.20
2023-04-18T17:40:26.277Z,18.30
2023-04-18T17:42:54.140Z,17.60
2023-04-18T17:45:22.101Z,17.80
2023-04-18T17:47:50.988Z,17.10
2023-04-18T17:50:19.609Z,18.10
2023-04-18T17:52:49.819Z,17.10
2023-04-18T17:55:18.110Z,20.00
2023-04-18T17:57:46.560Z,19.40
2023-04-18T18:00:15.906Z,24.70
2023-04-18T18:02:44.596Z,29.90
2023-04-18T18:05:13.551Z,31.10
2023-04-18T18:07:47.279Z,33.90
2023-04-18T18:10:19.063Z,35.10
2023-04-18T18:12:47.033Z,34.30
2023-04-18T18:15:15.041Z,35.10
2023-04-18T18:17:42.919Z,31.50
2023-04-18T18:20:11.184Z,29.10
2023-04-18T18:22:39.286Z,29.00
2023-04-18T18:25:07.965Z,23.60
2023-04-18T18:27:36.648Z,22.70
2023-04-18T18:30:05.850Z,21.70
2023-04-18T18:32:34.319Z,18.00
2023-04-18T18:35:02.701Z,18.00
2023-04-18T18:37:30.841Z,18.70
2023-04-18T18:40:00.213Z,17.30
2023-04-18T18:42:30.550Z,17.30
2023-04-18T18:44:58.310Z,16.40
2023-04-18T18:47:26.498Z,16.80
2023-04-18T18:49:54.460Z,16.60
2023-04-18T18:52:24.751Z,16.60
2023-04-18T18:54:52.773Z,15.30
2023-04-18T18:57:21.385Z,16.20
2023-04-18T18:59:54.511Z,15.50
2023-04-18T19:02:24.012Z,15.90
2023-04-18T19:04:52.180Z,16.30
2023-04-18T19:07:20.398Z,15.90
2023-04-18T19:09:48.309Z,16.00
2023-04-18T19:12:16.290Z,15.20
2023-04-18T19:15:17.422Z,16.20
2023-04-18T19:17:49.704Z,15.90
2023-04-18T19:20:19.376Z,14.80
2023-04-18T19:23:03.532Z,15.60
2023-04-18T19:29:25.240Z,13.40
2023-04-18T19:32:25.539Z,15.00
2023-04-18T19:35:25.743Z,15.30
2023-04-18T19:38:01.370Z,16.40
2023-04-18T19:40:29.908Z,15.60
2023-04-18T19:42:58.135Z,16.10
2023-04-18T19:45:26.370Z,15.70
2023-04-18T19:47:54.203Z,16.30
2023-04-18T19:50:22.064Z,15.60
2023-04-18T19:52:50.057Z,16.90
2023-04-18T19:55:17.847Z,15.90
2023-04-18T19:57:45.884Z,15.70
2023-04-18T20:00:14.518Z,15.90
2023-04-18T20:02:43.253Z,15.60
2023-04-18T20:05:12.891Z,15.20
2023-04-18T20:07:41.814Z,15.60
2023-04-18T20:10:10.720Z,16.30
2023-04-18T20:12:38.471Z,15.70
2023-04-18T20:15:07.227Z,14.80
2023-04-18T20:17:35.430Z,14.50
2023-04-18T20:20:04.641Z,15.50
2023-04-18T20:22:32.539Z,14.00
2023-04-18T20:25:01.743Z,13.90
2023-04-18T20:27:30.059Z,15.10
2023-04-18T20:29:57.805Z,13.40
2023-04-18T20:32:27.186Z,14.10
2023-04-18T20:34:55.017Z,13.70
2023-04-18T20:37:23.298Z,14.50
2023-04-18T20:39:54.690Z,14.10
2023-04-18T20:42:22.714Z,13.80
2023-04-18T20:44:50.634Z,14.70
2023-04-18T20:47:18.688Z,13.70
2023-04-18T20:49:46.903Z,14.10
2023-04-18T20:52:14.933Z,14.80
2023-04-18T20:54:42.879Z,14.60
2023-04-18T20:57:10.660Z,14.70
2023-04-18T20:59:38.610Z,15.10
2023-04-18T21:02:07.215Z,13.80
2023-04-18T21:04:35.267Z,14.10
2023-04-18T21:07:03.275Z,14.40
2023-04-18T21:09:36.330Z,14.20
2023-04-18T21:12:05.423Z,13.50
2023-04-18T21:14:33.185Z,14.10
2023-04-18T21:17:01.755Z,13.00
2023-04-18T21:19:29.500Z,13.60
2023-04-18T21:21:57.364Z,13.30
2023-04-18T21:24:25.215Z,13.80
2023-04-18T21:26:53.292Z,12.90
2023-04-18T21:29:21.682Z,11.50
2023-04-18T21:31:51.611Z,12.20
2023-04-18T21:34:20.095Z,12.90
2023-04-18T21:36:48.008Z,14.50
2023-04-18T21:39:16.199Z,12.80
2023-04-18T21:41:44.619Z,12.50
2023-04-18T21:44:12.958Z,13.40
2023-04-18T21:46:41.008Z,12.90
2023-04-18T21:49:08.731Z,12.70
2023-04-18T21:51:36.580Z,13.00
2023-04-18T21:54:04.673Z,13.70
2023-04-18T21:56:32.449Z,14.00
2023-04-18T21:59:00.373Z,14.90
2023-04-18T22:01:28.297Z,15.60
2023-04-18T22:03:56.297Z,13.90
2023-04-18T22:06:24.286Z,15.10
2023-04-18T22:08:52.292Z,13.90
2023-04-18T22:11:20.222Z,14.80
2023-04-18T22:13:50.134Z,14.00
2023-04-18T22:16:17.938Z,14.10
2023-04-18T22:18:45.719Z,15.00
2023-04-18T22:21:13.511Z,13.40
2023-04-18T22:23:41.278Z,14.20
2023-04-18T22:26:09.623Z,13.20
2023-04-18T22:28:37.929Z,15.50
2023-04-18T22:31:05.847Z,14.40
2023-04-18T22:33:34.262Z,13.30
2023-04-18T22:36:02.547Z,14.40
2023-04-18T22:38:30.337Z,12.40
2023-04-18T22:40:59.532Z,12.90
2023-04-18T22:43:27.324Z,11.80
2023-04-18T22:45:55.696Z,12.40
2023-04-18T22:48:23.718Z,12.30
2023-04-18T22:50:51.600Z,11.10
2023-04-18T22:53:19.763Z,11.90
2023-04-18T22:55:48.336Z,11.70
2023-04-18T22:58:16.238Z,10.50
2023-04-18T23:00:44.067Z,12.00
2023-04-18T23:03:12.174Z,11.80
2023-04-18T23:05:41.115Z,9.90
2023-04-18T23:08:09.014Z,11.40
2023-04-18T23:10:36.802Z,10.40
2023-04-18T23:13:04.685Z,11.00
2023-04-18T23:15:32.553Z,10.50
2023-04-18T23:18:00.527Z,10.90
2023-04-18T23:20:28.294Z,11.00
2023-04-18T23:22:56.716Z,11.30
2023-04-18T23:25:24.592Z,10.50
2023-04-18T23:27:52.424Z,10.10
2023-04-18T23:30:20.238Z,10.00
2023-04-18T23:32:48.107Z,10.30
2023-04-18T23:35:15.975Z,10.30
2023-04-18T23:37:43.820Z,11.50
2023-04-18T23:40:11.570Z,11.20
2023-04-18T23:42:39.596Z,10.40
2023-04-18T23:45:08.036Z,10.10
2023-04-18T23:47:36.388Z,10.90
2023-04-18T23:50:04.927Z,10.20
2023-04-18T23:52:32.707Z,10.30
2023-04-18T23:55:01.220Z,9.70
2023-04-18T23:57:29.172Z,10.40
2023-04-18T23:59:56.975Z,11.40
